Airfield :
LOGIN :

Register | Disclaimer

   EN    FR    IT 

 










Legend :    VFR   Marginal VFR   IFR   Intensive IFR   Very Intensive IFR
Visi :
Ceiling :
>= 8 km
>= 3000ft
5 to 8 km
1000 to 3000 ft
1500m to 5 km
500 to 1000 ft
800 to 1500m
200 to 500 ft
< 800m
< 200 ft
Symbols :   Thunderstorms  Fog  Heavy snow  Heavy precipitations  Wind > 20 kt
SIGMETs :     Misc.  Thunderstorms  Icing  Turbulence  Mountain Waves  Volcanic Ashes






- Airport Elevation : 605 ft
- IATA code : BAY


LRBM - Tautii Magheraus

CURRENT METAR :
  • 300030Z AUTO 08004KT 9999 BKN070/// 15/12 Q1008

EXPIRED METARs :
  • 300000Z AUTO 12003KT 070V170 9999 BKN065/// 14/12 Q1008
  • 292330Z AUTO 06003KT 040V130 9999 BKN065/// 15/12 Q1008
  • 292300Z AUTO VRB02KT 9999 FEW065/// BKN090/// OVC100/// 14/12 Q1008
  • 292230Z AUTO 00000KT 9999 OVC095/// 15/13 Q1008
  • 292200Z AUTO VRB01KT 9999 OVC090/// 15/13 Q1009
  • 292130Z AUTO VRB01KT 9999 BKN080/// 15/13 Q1009
  • 292100Z AUTO 02003KT 9999 FEW055/// SCT110/// 15/13 Q1009
  • 292030Z AUTO 36001KT 9999 FEW085/// BKN110/// 16/13 Q1009
  • 292000Z AUTO VRB01KT 9999 SCT110/// BKN140/// 16/14 Q1009

TAF TAF LRBM
Valid from the 29 at 18:00 until the 30 at 03:00 UTC


291700Z 2918/3003 VRB04KT 9999 SCT045
TEMPO 2918/2920 SCT040CB



MET'MAP, your aeronautical weather chart ! - Copyright ORBIFLY December 2007 - Disclaimer

ORBIFLY MET'MAP TEAM :

Programming & Development : Alexandra Zaïnal
Original concept : Baudouin d'Aumeries
Technical & hardware support : Manuel Goepfert
Assistance : Marc-Olivier Méhu




SOURCES & CREDITS :

   NOAA